Time;durP1;ratioP1;P1;durP2;ratioP2;P2;SDS_P1;SDS_P2;PMS_P1;PMS_P2;Temp;Humidity;BMP_temperature;BMP_pressure;BME280_temperature;BME280_humidity;BME280_pressure;Samples;Min_cycle;Max_cycle;Signal;HPM_P1;HPM_P2
2023/01/07 00:01:01;;;;;;;3.63;3.00;;;8.60;99.90;;;;;;5012387;28;20187;-75
2023/01/07 00:03:27;;;;;;;3.83;3.43;;;8.60;99.90;;;;;;4994763;28;20185;-75
2023/01/07 00:06:00;;;;;;;4.67;3.60;;;8.60;99.90;;;;;;4994824;28;20268;-76
2023/01/07 00:08:31;;;;;;;3.83;3.40;;;8.60;99.90;;;;;;4994522;28;20238;-75
2023/01/07 00:11:02;;;;;;;3.50;3.20;;;8.60;99.90;;;;;;4994827;28;20172;-75
2023/01/07 00:13:28;;;;;;;4.83;3.70;;;8.50;99.90;;;;;;5012055;28;20257;-75
2023/01/07 00:16:09;;;;;;;3.90;3.50;;;8.50;99.90;;;;;;4994835;28;20581;-75
2023/01/07 00:18:35;;;;;;;3.70;3.30;;;8.50;99.90;;;;;;5012083;28;20188;-75
2023/01/07 00:21:03;;;;;;;3.90;3.20;;;8.50;99.90;;;;;;5011882;28;20182;-75
2023/01/07 00:23:30;;;;;;;3.53;2.97;;;8.50;99.90;;;;;;5012664;28;20184;-75
2023/01/07 00:26:06;;;;;;;3.90;2.90;;;8.50;99.90;;;;;;4998742;28;20188;-76
2023/01/07 00:28:36;;;;;;;3.23;2.90;;;8.50;99.90;;;;;;5016028;28;20208;-75
2023/01/07 00:31:04;;;;;;;3.47;3.17;;;8.50;99.90;;;;;;5015871;28;20179;-75
2023/01/07 00:33:29;;;;;;;3.47;3.10;;;8.50;99.90;;;;;;5015959;28;20186;-75
2023/01/07 00:36:08;;;;;;;3.77;3.27;;;8.50;99.90;;;;;;4998316;28;20176;-75
2023/01/07 00:38:35;;;;;;;3.90;3.30;;;8.50;99.90;;;;;;4998412;28;20238;-75
2023/01/07 00:41:01;;;;;;;3.83;3.43;;;8.50;99.90;;;;;;4998242;28;20191;-76
2023/01/07 00:43:27;;;;;;;3.37;3.07;;;8.50;99.90;;;;;;5015805;28;20231;-74
2023/01/07 00:45:53;;;;;;;3.80;3.40;;;8.50;99.90;;;;;;5015696;28;20181;-75
2023/01/07 00:48:18;;;;;;;3.87;3.10;;;8.50;99.90;;;;;;4998036;28;20216;-75
2023/01/07 00:50:47;;;;;;;3.37;2.90;;;8.50;99.90;;;;;;4997830;28;20181;-75
2023/01/07 00:53:13;;;;;;;3.30;2.87;;;8.50;99.90;;;;;;5015523;28;20290;-75
2023/01/07 00:55:38;;;;;;;2.70;2.50;;;8.50;99.90;;;;;;5015655;28;20205;-75
2023/01/07 00:58:05;;;;;;;2.50;2.30;;;8.50;99.90;;;;;;5071334;23;20697;-76
2023/01/07 01:00:30;;;;;;;3.10;2.57;;;8.50;99.90;;;;;;5047734;28;20177;-75
2023/01/07 01:02:56;;;;;;;2.63;2.40;;;8.50;99.90;;;;;;5026038;28;20186;-76
2023/01/07 01:05:22;;;;;;;2.67;2.47;;;8.50;99.90;;;;;;5019166;28;20171;-78
2023/01/07 01:07:48;;;;;;;2.93;2.43;;;8.50;99.90;;;;;;5009201;28;20215;-74
2023/01/07 01:10:17;;;;;;;3.60;2.70;;;8.50;99.90;;;;;;4997717;28;20175;-75
2023/01/07 01:12:43;;;;;;;2.30;2.03;;;8.50;99.90;;;;;;4997546;28;20706;-76
2023/01/07 01:15:12;;;;;;;2.63;2.20;;;8.50;99.90;;;;;;4997957;28;20175;-78
2023/01/07 01:17:39;;;;;;;2.40;2.20;;;8.50;99.90;;;;;;5009621;28;20200;-80
2023/01/07 01:20:06;;;;;;;2.40;2.20;;;8.60;99.90;;;;;;5034799;28;20180;-79
2023/01/07 01:22:32;;;;;;;2.23;2.03;;;8.50;99.90;;;;;;5034975;28;20175;-78
2023/01/07 01:24:57;;;;;;;2.30;2.10;;;8.50;99.90;;;;;;5034901;28;20227;-78
2023/01/07 01:27:23;;;;;;;2.27;1.97;;;8.50;99.90;;;;;;5034529;28;20208;-78
2023/01/07 01:29:49;;;;;;;2.27;2.07;;;8.50;99.90;;;;;;5016767;28;20266;-78
2023/01/07 01:32:14;;;;;;;2.50;2.00;;;8.50;99.90;;;;;;5016837;28;20175;-78
2023/01/07 01:34:40;;;;;;;2.60;2.20;;;8.50;99.90;;;;;;5016788;28;20175;-78
2023/01/07 01:37:05;;;;;;;2.67;2.40;;;8.50;99.90;;;;;;5016128;28;20215;-78
2023/01/07 01:39:31;;;;;;;2.60;1.90;;;8.50;99.90;;;;;;5034541;28;20176;-81
2023/01/07 01:41:57;;;;;;;3.17;1.87;;;8.50;99.90;;;;;;5016573;28;20185;-79
2023/01/07 01:44:49;;;;;;;2.07;1.87;;;8.50;99.90;;;;;;5034718;28;20179;-79
2023/01/07 01:47:14;;;;;;;1.93;1.80;;;8.50;99.90;;;;;;5034416;28;20214;-79
2023/01/07 01:49:48;;;;;;;2.67;2.00;;;8.50;99.90;;;;;;5034230;28;20167;-78
2023/01/07 01:52:22;;;;;;;1.60;1.50;;;8.50;99.90;;;;;;5016667;28;20256;-78
2023/01/07 01:54:55;;;;;;;1.77;1.67;;;8.50;99.90;;;;;;5016509;28;20185;-78
2023/01/07 01:57:21;;;;;;;1.90;1.80;;;8.50;99.90;;;;;;5034012;28;20215;-78
2023/01/07 01:59:50;;;;;;;2.03;1.83;;;8.50;99.90;;;;;;5034270;28;20204;-79
2023/01/07 02:02:23;;;;;;;1.97;1.70;;;8.50;99.90;;;;;;5034191;28;20685;-78
2023/01/07 02:04:49;;;;;;;2.60;1.80;;;8.50;99.90;;;;;;5016302;28;20175;-78
2023/01/07 02:07:16;;;;;;;2.00;1.40;;;8.50;99.90;;;;;;5016182;28;20207;-78
2023/01/07 02:09:42;;;;;;;1.70;1.60;;;8.50;99.90;;;;;;5016039;28;20182;-78
2023/01/07 02:12:39;;;;;;;1.90;1.60;;;8.50;99.90;;;;;;5016418;28;20172;-78
2023/01/07 02:15:13;;;;;;;1.80;1.70;;;8.40;99.90;;;;;;5016351;28;20175;-79
2023/01/07 02:18:16;;;;;;;2.13;1.80;;;8.40;99.90;;;;;;5033722;28;20196;-80
2023/01/07 02:20:57;;;;;;;1.93;1.77;;;8.40;99.90;;;;;;4951477;28;20250;-78
2023/01/07 02:24:04;;;;;;;2.10;1.90;;;8.40;99.90;;;;;;5016151;28;20267;-78
2023/01/07 02:26:48;;;;;;;2.30;1.70;;;8.40;99.90;;;;;;5022651;28;20281;-79
2023/01/07 02:29:32;;;;;;;2.00;1.77;;;8.40;99.90;;;;;;5015926;28;20562;-79
2023/01/07 02:32:18;;;;;;;2.20;2.00;;;8.40;99.90;;;;;;5015784;28;20180;-78
2023/01/07 02:35:04;;;;;;;2.13;1.80;;;8.40;99.90;;;;;;5033297;28;20566;-78
2023/01/07 02:38:08;;;;;;;1.70;1.60;;;8.40;99.90;;;;;;5015742;28;20198;-78
2023/01/07 02:40:57;;;;;;;2.10;1.90;;;8.40;99.90;;;;;;5018175;28;20217;-79
2023/01/07 02:43:51;;;;;;;2.03;1.83;;;8.40;99.90;;;;;;5005417;28;20184;-78
2023/01/07 02:46:36;;;;;;;2.10;1.90;;;8.40;99.90;;;;;;4995637;28;20260;-78
2023/01/07 02:49:08;;;;;;;1.63;1.53;;;8.40;99.90;;;;;;4995936;28;20217;-78
2023/01/07 02:51:36;;;;;;;1.63;1.53;;;8.30;99.90;;;;;;5020674;28;20174;-78
2023/01/07 02:54:04;;;;;;;2.90;2.03;;;8.30;99.90;;;;;;5024824;28;20183;-80
2023/01/07 02:56:42;;;;;;;2.33;1.97;;;8.30;99.90;;;;;;5015280;28;20168;-79
2023/01/07 02:59:30;;;;;;;2.07;1.87;;;8.30;99.90;;;;;;5032862;28;20215;-78
2023/01/07 03:02:33;;;;;;;2.07;1.87;;;8.30;99.90;;;;;;5015089;28;20350;-79
2023/01/07 03:05:17;;;;;;;1.90;1.70;;;8.30;99.90;;;;;;5015318;28;20184;-79
2023/01/07 03:08:16;;;;;;;2.23;1.93;;;8.30;99.90;;;;;;5015091;28;20202;-78
2023/01/07 03:10:59;;;;;;;2.00;1.80;;;8.30;99.90;;;;;;5032720;28;20670;-78
2023/01/07 03:13:31;;;;;;;1.73;1.63;;;8.30;99.90;;;;;;5032880;28;20181;-79
2023/01/07 03:16:08;;;;;;;2.87;1.97;;;8.30;99.90;;;;;;5015166;28;20208;-80
2023/01/07 03:18:40;;;;;;;1.87;1.73;;;8.30;99.90;;;;;;5032497;28;20196;-78
2023/01/07 03:21:12;;;;;;;1.87;1.73;;;8.30;99.90;;;;;;5032718;28;20289;-78
2023/01/07 03:23:43;;;;;;;1.70;1.60;;;8.30;99.90;;;;;;5032782;28;20175;-78
2023/01/07 03:26:10;;;;;;;2.40;1.33;;;8.20;99.90;;;;;;5032635;28;20231;-78
2023/01/07 03:28:40;;;;;;;1.60;1.50;;;8.20;99.90;;;;;;5032270;28;20204;-78
2023/01/07 03:31:10;;;;;;;1.60;1.50;;;8.20;99.90;;;;;;5032136;28;20181;-79
2023/01/07 03:33:40;;;;;;;2.00;1.77;;;8.20;99.90;;;;;;5014925;28;20227;-80
2023/01/07 03:36:09;;;;;;;2.03;1.70;;;8.20;99.90;;;;;;5014877;28;20172;-78
2023/01/07 03:38:37;;;;;;;1.97;1.77;;;8.20;99.90;;;;;;5032231;28;20191;-78
2023/01/07 03:41:03;;;;;;;1.90;1.70;;;8.20;99.90;;;;;;5032172;28;20196;-78
2023/01/07 03:43:28;;;;;;;1.73;1.50;;;8.10;99.90;;;;;;5014493;28;20277;-78
2023/01/07 03:45:58;;;;;;;2.13;1.60;;;8.10;99.90;;;;;;5014814;28;20659;-78
2023/01/07 03:48:23;;;;;;;1.93;1.43;;;8.10;99.90;;;;;;5014349;28;20211;-78
2023/01/07 03:50:49;;;;;;;1.73;1.63;;;8.10;99.90;;;;;;5032013;28;20186;-78
2023/01/07 03:53:14;;;;;;;1.70;1.60;;;8.10;99.90;;;;;;5028225;28;20174;-79
2023/01/07 03:55:40;;;;;;;2.83;1.80;;;8.00;99.90;;;;;;5019638;28;20204;-78
2023/01/07 03:58:06;;;;;;;2.03;1.83;;;8.00;99.90;;;;;;5011696;28;20213;-78
2023/01/07 04:00:31;;;;;;;2.03;1.70;;;8.00;99.90;;;;;;5012460;28;20204;-78
2023/01/07 04:02:57;;;;;;;2.10;1.90;;;8.00;99.90;;;;;;5012342;28;20193;-79
2023/01/07 04:05:22;;;;;;;1.80;1.67;;;8.00;99.90;;;;;;4994709;28;20185;-78
2023/01/07 04:07:48;;;;;;;1.50;1.40;;;7.90;99.90;;;;;;5012103;28;20206;-78
2023/01/07 04:10:13;;;;;;;1.63;1.53;;;7.90;99.90;;;;;;4994543;28;20178;-78
2023/01/07 04:12:39;;;;;;;1.93;1.40;;;8.00;99.90;;;;;;4994574;28;20179;-80
2023/01/07 04:15:05;;;;;;;2.00;1.63;;;8.00;99.90;;;;;;5012327;28;20177;-78
2023/01/07 04:17:30;;;;;;;1.97;1.50;;;8.00;99.90;;;;;;4994494;28;20222;-78
2023/01/07 04:19:56;;;;;;;1.70;1.60;;;8.10;99.90;;;;;;4994498;28;20187;-78
2023/01/07 04:22:22;;;;;;;1.60;1.43;;;8.00;99.90;;;;;;5012076;28;20237;-79
2023/01/07 04:24:47;;;;;;;1.40;1.30;;;8.00;99.90;;;;;;5012635;28;20182;-78
2023/01/07 04:27:13;;;;;;;1.70;1.50;;;8.00;99.90;;;;;;4994453;28;20217;-78
2023/01/07 04:29:38;;;;;;;2.13;1.30;;;8.00;99.90;;;;;;4994470;28;20237;-78
2023/01/07 04:32:04;;;;;;;1.53;1.43;;;8.00;99.90;;;;;;4994757;28;20229;-80
2023/01/07 04:34:29;;;;;;;3.03;1.70;;;8.10;99.90;;;;;;5011975;28;20178;-78
2023/01/07 04:36:55;;;;;;;1.60;1.50;;;8.10;99.90;;;;;;4994478;28;20219;-78
2023/01/07 04:39:21;;;;;;;2.30;1.60;;;8.10;99.90;;;;;;5011917;28;20180;-78
2023/01/07 04:41:46;;;;;;;1.83;1.73;;;8.10;99.90;;;;;;4994222;28;20188;-80
2023/01/07 04:44:14;;;;;;;2.33;1.70;;;8.10;99.90;;;;;;5012107;28;20332;-78
2023/01/07 04:46:39;;;;;;;1.87;1.77;;;8.00;99.90;;;;;;5011940;28;20170;-78
2023/01/07 04:49:05;;;;;;;3.07;1.90;;;8.10;99.90;;;;;;5011761;28;20222;-79
2023/01/07 04:51:30;;;;;;;2.23;1.60;;;8.10;99.90;;;;;;5011670;28;20173;-80
2023/01/07 04:53:57;;;;;;;1.67;1.57;;;8.10;99.90;;;;;;5011849;28;20212;-78
2023/01/07 04:56:23;;;;;;;1.80;1.70;;;8.10;99.90;;;;;;5011675;28;20665;-78
2023/01/07 04:58:48;;;;;;;2.20;1.60;;;8.20;99.90;;;;;;5011782;28;20215;-78
2023/01/07 05:01:14;;;;;;;1.70;1.60;;;8.10;99.90;;;;;;5011511;28;20176;-79
2023/01/07 05:03:39;;;;;;;4.70;1.83;;;8.20;99.90;;;;;;4994211;28;20180;-79
2023/01/07 05:06:05;;;;;;;2.07;1.80;;;8.10;99.90;;;;;;5011658;28;20625;-78
2023/01/07 05:08:31;;;;;;;2.13;1.93;;;8.10;99.90;;;;;;4994054;28;20216;-78
2023/01/07 05:10:56;;;;;;;2.10;1.70;;;8.10;99.90;;;;;;5020035;28;20270;-79
2023/01/07 05:13:23;;;;;;;2.47;1.70;;;8.20;99.90;;;;;;5008909;28;20180;-78
2023/01/07 05:15:49;;;;;;;1.90;1.70;;;8.20;99.90;;;;;;5017312;28;20214;-78
2023/01/07 05:18:15;;;;;;;2.40;1.60;;;8.20;99.90;;;;;;5017198;28;20229;-78
2023/01/07 05:20:41;;;;;;;2.87;1.50;;;8.20;99.90;;;;;;5017110;28;20622;-78
2023/01/07 05:23:07;;;;;;;1.63;1.53;;;8.20;99.90;;;;;;5017178;28;20218;-78
2023/01/07 05:25:33;;;;;;;2.07;1.40;;;8.20;99.90;;;;;;5016926;28;20633;-78
2023/01/07 05:27:59;;;;;;;2.23;1.47;;;8.20;99.90;;;;;;5034591;28;20249;-79
2023/01/07 05:30:25;;;;;;;1.70;1.50;;;8.20;99.90;;;;;;5016920;28;20180;-79
2023/01/07 05:32:50;;;;;;;1.87;1.70;;;8.20;99.90;;;;;;5017014;28;20178;-80
2023/01/07 05:35:16;;;;;;;2.40;1.50;;;8.20;99.90;;;;;;5034843;28;20170;-78
2023/01/07 05:37:42;;;;;;;1.73;1.53;;;8.20;99.90;;;;;;5016857;28;20206;-78
2023/01/07 05:40:08;;;;;;;1.80;1.60;;;8.20;99.90;;;;;;5016652;28;20174;-78
2023/01/07 05:42:34;;;;;;;1.43;1.30;;;8.10;99.90;;;;;;5034412;28;20183;-78
2023/01/07 05:44:59;;;;;;;1.83;1.70;;;8.10;99.90;;;;;;5017032;28;20309;-79
2023/01/07 05:47:25;;;;;;;3.03;1.60;;;8.10;99.90;;;;;;5034368;28;20650;-80
2023/01/07 05:49:50;;;;;;;1.83;1.60;;;8.10;99.90;;;;;;5016661;28;20170;-78
2023/01/07 05:52:16;;;;;;;2.87;1.53;;;8.10;99.90;;;;;;5026014;28;20256;-78
2023/01/07 05:54:42;;;;;;;2.07;1.70;;;8.10;99.90;;;;;;5016423;28;20198;-79
2023/01/07 05:57:07;;;;;;;1.60;1.50;;;8.10;99.90;;;;;;5016241;28;20171;-78
2023/01/07 05:59:33;;;;;;;1.60;1.50;;;8.10;99.90;;;;;;5016697;28;20684;-78
2023/01/07 06:02:02;;;;;;;1.80;1.70;;;8.10;99.90;;;;;;5016583;28;20196;-78
2023/01/07 06:04:28;;;;;;;1.80;1.70;;;8.00;99.90;;;;;;5034166;28;20181;-79
2023/01/07 06:06:54;;;;;;;1.50;1.40;;;8.00;99.90;;;;;;5033880;28;20178;-81
2023/01/07 06:09:19;;;;;;;1.53;1.43;;;8.00;99.90;;;;;;5036288;28;20210;-79
2023/01/07 06:11:45;;;;;;;1.57;1.47;;;8.00;99.90;;;;;;5019731;28;20206;-79
2023/01/07 06:14:11;;;;;;;2.57;1.50;;;8.10;99.90;;;;;;5019439;28;20176;-79
2023/01/07 06:16:36;;;;;;;1.90;1.30;;;8.10;99.90;;;;;;5036769;28;20176;-80
2023/01/07 06:19:02;;;;;;;2.33;1.60;;;8.00;99.90;;;;;;5018950;28;20200;-79
2023/01/07 06:21:27;;;;;;;1.60;1.50;;;8.10;99.90;;;;;;5018156;28;20182;-79
2023/01/07 06:23:54;;;;;;;1.60;1.50;;;8.10;99.90;;;;;;5019619;28;20220;-79
2023/01/07 06:26:20;;;;;;;2.43;1.33;;;8.00;99.90;;;;;;5018100;28;20280;-80
2023/01/07 06:28:45;;;;;;;2.23;1.40;;;8.00;99.90;;;;;;5017760;28;20248;-80
2023/01/07 06:31:11;;;;;;;1.50;1.40;;;8.00;99.90;;;;;;5017736;28;20174;-82
2023/01/07 06:33:36;;;;;;;1.60;1.50;;;8.00;99.90;;;;;;5017900;28;20179;-79
2023/01/07 06:36:03;;;;;;;1.93;1.53;;;8.00;99.90;;;;;;5035404;28;20559;-80
2023/01/07 06:38:29;;;;;;;2.00;1.47;;;8.00;99.90;;;;;;5017579;28;20203;-79
2023/01/07 06:40:55;;;;;;;1.50;1.40;;;8.00;99.90;;;;;;5017542;28;20179;-79
2023/01/07 06:43:20;;;;;;;1.60;1.40;;;8.00;99.90;;;;;;5034854;28;20186;-82
2023/01/07 06:45:46;;;;;;;1.50;1.40;;;7.90;99.90;;;;;;5010826;28;20184;-81
2023/01/07 06:48:11;;;;;;;1.40;1.30;;;8.00;99.90;;;;;;4996636;28;20204;-81
2023/01/07 06:50:37;;;;;;;2.03;1.50;;;8.00;99.90;;;;;;5013955;28;20184;-82
2023/01/07 06:53:03;;;;;;;1.50;1.40;;;7.90;99.90;;;;;;5013809;28;20627;-79
2023/01/07 06:55:28;;;;;;;1.73;1.50;;;8.00;99.90;;;;;;5013793;28;20175;-81
2023/01/07 06:57:54;;;;;;;2.10;1.53;;;8.00;99.90;;;;;;5020374;22;20224;-77
2023/01/07 07:00:20;;;;;;;1.70;1.30;;;7.90;99.90;;;;;;5012153;28;20653;-77
2023/01/07 07:02:45;;;;;;;1.20;1.07;;;7.90;99.90;;;;;;5010215;28;20175;-76
2023/01/07 07:05:11;;;;;;;1.40;1.30;;;8.00;99.90;;;;;;5021539;28;20202;-76
2023/01/07 07:07:37;;;;;;;1.30;1.10;;;8.00;99.90;;;;;;5032847;28;20194;-76
2023/01/07 07:10:06;;;;;;;1.83;1.20;;;8.00;99.90;;;;;;5032849;28;20321;-80
2023/01/07 07:12:32;;;;;;;1.67;1.10;;;8.00;99.90;;;;;;5033058;28;20175;-76
2023/01/07 07:14:58;;;;;;;1.20;1.10;;;8.00;99.90;;;;;;5032964;28;20170;-74
2023/01/07 07:17:23;;;;;;;1.10;1.00;;;8.00;99.90;;;;;;5015335;28;20178;-76
2023/01/07 07:19:49;;;;;;;2.63;1.30;;;8.00;99.90;;;;;;5020837;28;20203;-76
2023/01/07 07:22:14;;;;;;;1.40;1.30;;;7.90;99.90;;;;;;5006633;28;20197;-76
2023/01/07 07:24:40;;;;;;;1.47;1.30;;;7.90;99.90;;;;;;5014988;28;20178;-76
2023/01/07 07:27:06;;;;;;;2.17;1.43;;;8.00;99.90;;;;;;5032877;28;20196;-76
2023/01/07 07:29:31;;;;;;;1.70;1.50;;;7.90;99.90;;;;;;5032570;28;20664;-77
2023/01/07 07:31:57;;;;;;;1.70;1.50;;;8.00;99.90;;;;;;5032398;28;20168;-76
2023/01/07 07:34:22;;;;;;;1.70;1.40;;;7.90;99.90;;;;;;5031706;28;20183;-76
2023/01/07 07:36:48;;;;;;;1.40;1.30;;;8.00;99.90;;;;;;5014994;28;20169;-76
2023/01/07 07:39:13;;;;;;;2.23;1.40;;;8.00;99.90;;;;;;5014983;28;20192;-77
2023/01/07 07:41:39;;;;;;;1.63;1.40;;;8.00;99.90;;;;;;5032406;28;20304;-76
2023/01/07 07:44:05;;;;;;;1.93;1.40;;;8.00;99.90;;;;;;5032862;28;20177;-75
2023/01/07 07:46:30;;;;;;;2.83;1.27;;;8.00;99.90;;;;;;5026395;28;20520;-75
2023/01/07 07:48:56;;;;;;;2.00;1.30;;;8.00;99.90;;;;;;5023957;28;20203;-75
2023/01/07 07:51:22;;;;;;;2.00;1.40;;;8.00;99.90;;;;;;5032052;28;20175;-76
2023/01/07 07:53:47;;;;;;;3.50;1.80;;;8.00;99.90;;;;;;5014794;28;20238;-75
2023/01/07 07:56:13;;;;;;;1.60;1.50;;;8.00;99.90;;;;;;5014685;28;20176;-77
2023/01/07 07:58:38;;;;;;;1.60;1.50;;;8.00;99.90;;;;;;5032102;28;20212;-77
2023/01/07 08:01:04;;;;;;;1.83;1.63;;;8.00;99.90;;;;;;5032384;28;20180;-77
2023/01/07 08:03:30;;;;;;;1.90;1.67;;;8.00;99.90;;;;;;5014960;28;20272;-77
2023/01/07 08:05:55;;;;;;;2.97;1.80;;;8.00;99.90;;;;;;5014612;28;20183;-76
2023/01/07 08:08:21;;;;;;;1.60;1.50;;;8.00;99.90;;;;;;5031961;28;20583;-77
2023/01/07 08:10:47;;;;;;;2.07;1.50;;;8.00;99.90;;;;;;5013410;28;20171;-79
2023/01/07 08:13:12;;;;;;;1.50;1.40;;;8.00;99.90;;;;;;5013188;28;20222;-77
2023/01/07 08:15:38;;;;;;;1.77;1.50;;;8.00;99.90;;;;;;5031298;28;20217;-77
2023/01/07 08:18:06;;;;;;;2.23;1.80;;;8.00;99.90;;;;;;5014366;28;20202;-77
2023/01/07 08:20:34;;;;;;;1.70;1.60;;;8.10;99.90;;;;;;5014210;28;20255;-77
2023/01/07 08:23:01;;;;;;;1.97;1.70;;;8.10;99.90;;;;;;5014319;28;20649;-77
2023/01/07 08:25:29;;;;;;;1.60;1.50;;;8.10;99.90;;;;;;5014505;28;20180;-76
2023/01/07 08:27:55;;;;;;;1.70;1.60;;;8.20;99.90;;;;;;5031723;28;20286;-77
2023/01/07 08:30:21;;;;;;;2.10;1.60;;;8.20;99.90;;;;;;5031934;28;20212;-77
2023/01/07 08:32:47;;;;;;;1.67;1.57;;;8.20;99.90;;;;;;5032019;28;20168;-77
2023/01/07 08:35:13;;;;;;;1.60;1.50;;;8.10;99.90;;;;;;5014503;28;20239;-77
2023/01/07 08:37:38;;;;;;;2.00;1.80;;;8.20;99.90;;;;;;5014430;28;20204;-77
2023/01/07 08:40:05;;;;;;;1.60;1.50;;;8.10;99.90;;;;;;5013928;28;20176;-77
2023/01/07 08:42:31;;;;;;;1.90;1.57;;;8.20;99.90;;;;;;5032100;28;20171;-77
2023/01/07 08:44:56;;;;;;;1.83;1.73;;;8.20;99.90;;;;;;5032856;28;20188;-77
2023/01/07 08:47:22;;;;;;;2.63;2.00;;;8.30;99.90;;;;;;5036079;28;20198;-77
2023/01/07 08:49:47;;;;;;;2.03;1.83;;;8.30;99.90;;;;;;5035526;28;20589;-77
2023/01/07 08:52:13;;;;;;;2.00;1.80;;;8.30;99.90;;;;;;5018044;28;20182;-77
2023/01/07 08:54:39;;;;;;;2.27;1.80;;;8.30;99.90;;;;;;5035617;28;20210;-77
2023/01/07 08:57:04;;;;;;;2.33;2.10;;;8.20;99.90;;;;;;5035616;28;20175;-77
2023/01/07 08:59:30;;;;;;;2.60;1.80;;;8.20;99.90;;;;;;5035490;28;20289;-77
2023/01/07 09:01:56;;;;;;;2.30;2.07;;;8.20;99.90;;;;;;5017933;28;20176;-77
2023/01/07 09:04:21;;;;;;;2.30;2.10;;;8.20;99.90;;;;;;5017626;28;20174;-77
2023/01/07 09:06:47;;;;;;;2.50;2.00;;;8.20;99.90;;;;;;5017918;28;20179;-77
2023/01/07 09:09:15;;;;;;;2.67;1.80;;;8.30;99.90;;;;;;5034986;28;20220;-77
2023/01/07 09:11:41;;;;;;;2.40;1.93;;;8.30;99.90;;;;;;5035090;28;20204;-76
2023/01/07 09:14:07;;;;;;;2.10;1.80;;;8.30;99.90;;;;;;5017408;28;20646;-77
2023/01/07 09:16:32;;;;;;;3.27;1.97;;;8.20;99.90;;;;;;5035403;28;20250;-77
2023/01/07 09:18:58;;;;;;;2.30;2.00;;;8.20;99.90;;;;;;5017563;28;20202;-75
2023/01/07 09:21:23;;;;;;;2.90;2.20;;;8.20;99.90;;;;;;5017585;28;20187;-77
2023/01/07 09:23:49;;;;;;;2.30;2.10;;;8.20;99.90;;;;;;5035341;28;20269;-77
2023/01/07 09:26:14;;;;;;;2.40;2.17;;;8.20;99.90;;;;;;5035055;28;20186;-77
2023/01/07 09:28:40;;;;;;;2.30;2.10;;;8.20;99.90;;;;;;5034885;28;20219;-76
2023/01/07 09:31:06;;;;;;;2.30;2.07;;;8.20;99.90;;;;;;5034838;28;20641;-76
2023/01/07 09:33:33;;;;;;;3.43;2.13;;;8.30;99.90;;;;;;5035084;28;20168;-77
2023/01/07 09:35:58;;;;;;;2.40;2.20;;;8.20;99.90;;;;;;5034967;28;20168;-77
2023/01/07 09:38:24;;;;;;;3.30;2.57;;;8.30;99.90;;;;;;5016886;28;20203;-77
2023/01/07 09:40:50;;;;;;;2.77;2.00;;;8.20;99.90;;;;;;5016782;28;20175;-77
2023/01/07 09:43:37;;;;;;;2.30;2.10;;;8.30;99.90;;;;;;5017212;28;20173;-77
2023/01/07 09:46:07;;;;;;;2.30;2.00;;;8.30;99.90;;;;;;5017056;28;20694;-77
2023/01/07 09:48:44;;;;;;;2.00;1.80;;;8.30;99.90;;;;;;5034568;28;20705;-76
2023/01/07 09:51:18;;;;;;;2.47;2.07;;;8.30;99.90;;;;;;5016874;28;20171;-77
2023/01/07 09:53:57;;;;;;;2.07;1.87;;;8.30;99.90;;;;;;5017056;28;20175;-77
2023/01/07 09:56:28;;;;;;;2.40;2.00;;;8.30;99.90;;;;;;5033399;28;20589;-76
2023/01/07 09:58:55;;;;;;;2.40;2.20;;;8.30;99.90;;;;;;5016395;28;20206;-77
2023/01/07 10:01:47;;;;;;;1.70;1.60;;;8.30;99.90;;;;;;5034685;28;20182;-76
2023/01/07 10:04:29;;;;;;;2.40;1.67;;;8.30;99.90;;;;;;5016661;28;20245;-77
2023/01/07 10:07:13;;;;;;;1.93;1.73;;;8.30;99.90;;;;;;5034470;28;20266;-77
2023/01/07 10:10:03;;;;;;;1.60;1.50;;;8.30;99.90;;;;;;5016216;28;20254;-77
2023/01/07 10:12:53;;;;;;;1.60;1.30;;;8.30;99.90;;;;;;5034294;28;20171;-76
2023/01/07 10:15:28;;;;;;;1.90;1.70;;;8.30;99.90;;;;;;5016354;28;20627;-77
2023/01/07 10:18:24;;;;;;;1.50;1.40;;;8.40;99.90;;;;;;5016241;28;20280;-77
2023/01/07 10:20:57;;;;;;;1.40;1.30;;;8.40;99.90;;;;;;5033855;28;20170;-77
2023/01/07 10:23:30;;;;;;;2.13;1.47;;;8.30;99.90;;;;;;5003215;28;20237;-77
2023/01/07 10:25:59;;;;;;;1.90;1.60;;;8.30;99.90;;;;;;5021964;28;20168;-75
2023/01/07 10:28:41;;;;;;;1.53;1.43;;;8.40;99.90;;;;;;5015005;28;20318;-76
2023/01/07 10:31:21;;;;;;;2.17;1.50;;;8.40;99.90;;;;;;5033792;28;20669;-77
2023/01/07 10:33:48;;;;;;;1.60;1.50;;;8.40;99.90;;;;;;5033663;28;20176;-75
2023/01/07 10:36:23;;;;;;;1.50;1.40;;;8.30;99.90;;;;;;5016021;28;20179;-76
2023/01/07 10:39:19;;;;;;;1.60;1.30;;;8.30;99.90;;;;;;5021465;28;20199;-75
2023/01/07 10:42:04;;;;;;;1.50;1.40;;;8.30;99.90;;;;;;4976560;28;20186;-75
2023/01/07 10:45:14;;;;;;;1.80;1.57;;;8.30;99.90;;;;;;4994081;28;20176;-75
2023/01/07 10:47:58;;;;;;;1.70;1.30;;;8.30;99.90;;;;;;4961436;28;20213;-75
2023/01/07 10:50:41;;;;;;;1.47;1.37;;;8.30;99.90;;;;;;5005159;28;20189;-75
2023/01/07 10:53:27;;;;;;;1.57;1.47;;;8.30;99.90;;;;;;5025589;28;20169;-76
2023/01/07 10:56:16;;;;;;;2.30;1.47;;;8.30;99.90;;;;;;4994005;28;20553;-75
2023/01/07 10:58:43;;;;;;;1.87;1.30;;;8.30;99.90;;;;;;4991935;28;20231;-76
2023/01/07 11:01:36;;;;;;;1.50;1.40;;;8.30;99.90;;;;;;4976224;28;20185;-76
2023/01/07 11:04:02;;;;;;;1.40;1.20;;;8.30;99.90;;;;;;4991856;28;20211;-78
2023/01/07 11:06:39;;;;;;;2.27;1.30;;;8.30;99.90;;;;;;4976287;28;20575;-78
2023/01/07 11:09:10;;;;;;;1.77;1.20;;;8.30;99.90;;;;;;4975652;28;20307;-77
2023/01/07 11:11:37;;;;;;;1.40;1.30;;;8.30;99.90;;;;;;4976086;28;20240;-78
2023/01/07 11:14:10;;;;;;;1.40;1.30;;;8.30;99.90;;;;;;4975954;28;20186;-78
2023/01/07 11:16:45;;;;;;;2.93;1.33;;;8.30;99.90;;;;;;4993664;28;20191;-76
2023/01/07 11:19:11;;;;;;;1.70;1.30;;;8.30;99.90;;;;;;4975796;28;20203;-79
2023/01/07 11:21:43;;;;;;;1.10;1.00;;;8.40;99.90;;;;;;4975995;28;20184;-79
2023/01/07 11:24:28;;;;;;;1.00;1.00;;;8.40;99.90;;;;;;4975887;28;20182;-76
2023/01/07 11:27:14;;;;;;;1.30;1.10;;;8.40;99.90;;;;;;4993498;28;20613;-76
2023/01/07 11:29:53;;;;;;;1.40;1.30;;;8.40;99.90;;;;;;4975584;28;20239;-77
2023/01/07 11:32:24;;;;;;;1.10;1.00;;;8.50;99.90;;;;;;5012048;28;20264;-76
2023/01/07 11:35:02;;;;;;;1.40;1.30;;;8.50;99.90;;;;;;5006682;28;20243;-80
2023/01/07 11:37:40;;;;;;;1.40;1.20;;;8.50;99.90;;;;;;5024069;28;20177;-76
2023/01/07 11:40:11;;;;;;;1.37;1.20;;;8.50;99.90;;;;;;5007787;28;20171;-77
2023/01/07 11:42:51;;;;;;;1.67;1.30;;;8.60;99.90;;;;;;5001825;28;20234;-76
2023/01/07 11:45:24;;;;;;;1.30;1.20;;;8.60;99.90;;;;;;5006509;28;20179;-76
2023/01/07 11:47:59;;;;;;;1.23;1.13;;;8.60;99.90;;;;;;5032471;28;20295;-76
2023/01/07 11:51:04;;;;;;;1.37;1.27;;;8.60;99.90;;;;;;5031708;28;20199;-76
2023/01/07 11:53:35;;;;;;;1.50;1.40;;;8.60;99.90;;;;;;5012335;28;20227;-78
2023/01/07 11:56:10;;;;;;;1.63;1.40;;;8.60;99.90;;;;;;5012669;28;20247;-77
2023/01/07 11:58:44;;;;;;;1.60;1.40;;;8.60;99.90;;;;;;5012419;28;20208;-77
2023/01/07 12:01:22;;;;;;;1.60;1.37;;;8.60;99.90;;;;;;4994624;28;20681;-77
2023/01/07 12:03:50;;;;;;;3.97;1.83;;;8.60;99.90;;;;;;4994823;28;20215;-77
2023/01/07 12:06:25;;;;;;;1.77;1.43;;;8.60;99.90;;;;;;5012113;28;20168;-76
2023/01/07 12:08:54;;;;;;;1.40;1.30;;;8.60;99.90;;;;;;5012313;28;20202;-78
2023/01/07 12:11:21;;;;;;;2.00;1.60;;;8.60;99.90;;;;;;4994624;28;20208;-77
2023/01/07 12:13:51;;;;;;;2.00;1.50;;;8.60;99.90;;;;;;5012573;28;20176;-79
2023/01/07 12:16:25;;;;;;;1.60;1.40;;;8.70;99.90;;;;;;5012174;28;20174;-79
2023/01/07 12:19:14;;;;;;;2.23;1.47;;;8.70;99.90;;;;;;5012368;28;20206;-79
2023/01/07 12:21:39;;;;;;;1.97;1.60;;;8.80;99.90;;;;;;4998532;28;20177;-77
2023/01/07 12:24:42;;;;;;;2.23;1.60;;;8.80;99.90;;;;;;4998361;28;20664;-78
2023/01/07 12:27:33;;;;;;;2.10;1.90;;;8.80;99.90;;;;;;5003345;28;20186;-77
2023/01/07 12:30:37;;;;;;;2.43;2.00;;;8.70;99.90;;;;;;4979095;28;20238;-78
2023/01/07 12:33:21;;;;;;;2.03;1.83;;;8.70;99.90;;;;;;4962994;28;20185;-78
2023/01/07 12:35:47;;;;;;;2.90;1.90;;;8.70;99.90;;;;;;5014419;28;20173;-78
2023/01/07 12:38:15;;;;;;;2.20;2.00;;;8.70;99.90;;;;;;5010054;28;20223;-78
2023/01/07 12:41:09;;;;;;;2.23;1.90;;;8.60;99.90;;;;;;5017767;28;20595;-77
2023/01/07 12:43:55;;;;;;;2.30;2.10;;;8.60;99.90;;;;;;5035517;28;20183;-78
2023/01/07 12:46:22;;;;;;;2.43;2.03;;;8.60;99.90;;;;;;5023257;28;20190;-78
2023/01/07 12:49:03;;;;;;;2.10;1.90;;;8.60;99.90;;;;;;5006014;28;20588;-77
2023/01/07 12:51:44;;;;;;;2.23;2.03;;;8.60;99.90;;;;;;5034565;28;20181;-77
2023/01/07 12:54:18;;;;;;;2.10;1.90;;;8.60;99.90;;;;;;5017702;28;20171;-77
2023/01/07 12:56:58;;;;;;;2.30;2.10;;;8.60;99.90;;;;;;5017574;28;20183;-77
2023/01/07 12:59:33;;;;;;;2.20;2.00;;;8.60;99.90;;;;;;5082243;22;20232;-83
2023/01/07 13:02:20;;;;;;;2.03;1.77;;;8.60;99.90;;;;;;5001161;28;20190;-83
2023/01/07 13:05:09;;;;;;;2.20;2.00;;;8.60;99.90;;;;;;5018775;28;20238;-83
2023/01/07 13:08:01;;;;;;;3.80;2.20;;;8.60;99.90;;;;;;5019563;28;20663;-84
2023/01/07 13:10:40;;;;;;;2.00;1.90;;;8.60;99.90;;;;;;4982362;28;20241;-84
2023/01/07 13:13:36;;;;;;;1.97;1.77;;;8.50;99.90;;;;;;4982439;28;20197;-83
2023/01/07 13:16:04;;;;;;;3.33;2.20;;;8.50;99.90;;;;;;5001225;28;20188;-83
2023/01/07 13:18:30;;;;;;;2.30;2.00;;;8.60;99.90;;;;;;5011879;28;20206;-82